aviador You're here:

KGAF Decoded Metar

in
Report Time2017-05-29 01:55:00
UTC Time2017-05-29 02:01:04
Flight Rules mvfr MVFR
Wind330° at 14 kt
W.Decomp.*RWY 35: 13.2 kt HW 4.8 kt LCW
RWY 26: 4.8 kt HW 13.2 kt RCW
W.Rank330° ranks 5
Current wind is above 330° avg. (9.9)
Visibility9999 m
Phenomena:N/A
Clouds:Few 016 Hf
Broken 021 Hf
Overcast 027 Hf
Expected CloudBase > 400 ft AGL from Temp-Dew spread
Ceiling2,100 ft
Temp11°C
Dew Point10°C (94% RH)
AAT6.0°C
QNH1009 hPa
Raw Report
METAR KGAF 290155Z AUTO 33014KT 9SM FEW016 BKN021 OVC027 11/10 A2980
RMK AO2=

Extra information for KGAF:More info

Social comments